Time;durP1;ratioP1;P1;durP2;ratioP2;P2;SDS_P1;SDS_P2;PMS_P1;PMS_P2;Temp;Humidity;BMP_temperature;BMP_pressure;BME280_temperature;BME280_humidity;BME280_pressure;Samples;Min_cycle;Max_cycle;Signal;HPM_P1;HPM_P2
2021/03/16 00:01:56;;;;;;;71.00;30.80;;;;;;;1.44;80.87;99958.84;1777527;78;25885;-67
2021/03/16 00:04:24;;;;;;;69.17;29.48;;;;;;;1.44;80.91;99965.00;1763154;78;26459;-67
2021/03/16 00:06:57;;;;;;;63.50;29.95;;;;;;;1.43;80.95;99961.94;1761422;79;28072;-67
2021/03/16 00:09:23;;;;;;;67.80;29.35;;;;;;;1.43;80.97;99968.98;1759143;78;25824;-67
2021/03/16 00:11:50;;;;;;;68.42;29.85;;;;;;;1.42;81.00;99971.20;1750413;78;25819;-67
2021/03/16 00:14:18;;;;;;;66.15;27.48;;;;;;;1.40;81.00;99968.59;1750567;79;25890;-68
2021/03/16 00:16:46;;;;;;;66.77;29.40;;;;;;;1.41;81.03;99966.83;1729025;78;26398;-68
2021/03/16 00:19:14;;;;;;;64.60;29.55;;;;;;;1.40;81.07;99971.23;1751228;79;29027;-67
2021/03/16 00:21:41;;;;;;;63.13;28.73;;;;;;;1.39;81.01;99973.90;1747804;79;25845;-67
2021/03/16 00:24:09;;;;;;;70.60;29.50;;;;;;;1.38;81.14;99975.67;1751264;78;26603;-67
2021/03/16 00:26:37;;;;;;;64.65;28.30;;;;;;;1.41;81.13;99978.26;1741802;78;25852;-67
2021/03/16 00:29:06;;;;;;;66.62;29.77;;;;;;;1.42;81.16;99982.64;1758561;79;25879;-68
2021/03/16 00:31:34;;;;;;;82.42;30.82;;;;;;;1.44;81.15;99988.77;1744177;79;27999;-67
2021/03/16 00:34:02;;;;;;;72.87;30.77;;;;;;;1.44;81.17;99986.13;1734599;80;26292;-67
2021/03/16 00:36:30;;;;;;;70.87;30.90;;;;;;;1.42;81.14;99985.73;1741165;80;26249;-68
2021/03/16 00:38:57;;;;;;;72.90;32.13;;;;;;;1.41;81.20;99986.18;1738653;80;25937;-67
2021/03/16 00:41:25;;;;;;;76.60;33.45;;;;;;;1.40;81.18;99983.56;1739472;80;26049;-67
2021/03/16 00:43:53;;;;;;;74.32;32.30;;;;;;;1.39;81.21;99988.42;1734762;80;27474;-67
2021/03/16 00:46:21;;;;;;;65.10;29.98;;;;;;;1.38;81.25;99985.36;1736918;80;26302;-67
2021/03/16 00:48:49;;;;;;;73.30;31.07;;;;;;;1.37;81.25;99986.25;1736682;80;26093;-66
2021/03/16 00:51:17;;;;;;;74.77;31.42;;;;;;;1.35;81.28;99984.09;1754150;80;26115;-67
2021/03/16 00:53:45;;;;;;;85.17;32.88;;;;;;;1.38;81.34;99984.04;1770811;79;25925;-66
2021/03/16 00:56:12;;;;;;;63.98;29.60;;;;;;;1.39;81.40;99987.97;1754315;79;27827;-66
2021/03/16 00:58:40;;;;;;;79.12;31.65;;;;;;;1.35;81.25;99986.28;1744942;79;25768;-66
2021/03/16 01:01:08;;;;;;;67.85;30.32;;;;;;;1.31;81.32;99992.51;1747402;79;25923;-66
2021/03/16 01:03:36;;;;;;;68.37;30.30;;;;;;;1.28;81.38;99988.15;1760593;79;25826;-67
2021/03/16 01:06:05;;;;;;;71.67;31.68;;;;;;;1.30;81.45;99987.67;1747906;79;26133;-67
2021/03/16 01:08:33;;;;;;;76.75;30.68;;;;;;;1.34;81.61;99985.86;1747718;79;26624;-66
2021/03/16 01:11:02;;;;;;;67.97;30.05;;;;;;;1.39;81.61;99987.10;1735273;80;26215;-68
2021/03/16 01:13:31;;;;;;;67.80;31.70;;;;;;;1.42;81.65;99990.56;1734412;79;26571;-67
2021/03/16 01:15:59;;;;;;;67.75;30.32;;;;;;;1.45;81.69;99991.83;1749546;79;26106;-66
2021/03/16 01:18:27;;;;;;;69.42;29.65;;;;;;;1.51;81.77;99993.50;1743047;79;25854;-68
2021/03/16 01:20:55;;;;;;;68.80;30.48;;;;;;;1.51;81.70;99987.77;1753559;79;27810;-67
2021/03/16 01:23:23;;;;;;;69.40;31.35;;;;;;;1.50;81.64;99991.30;1757783;79;26246;-67
2021/03/16 01:25:51;;;;;;;80.30;31.10;;;;;;;1.50;81.71;99990.44;1751798;80;26695;-67
2021/03/16 01:28:19;;;;;;;69.53;32.80;;;;;;;1.47;81.71;99987.39;1752612;79;26324;-67
2021/03/16 01:30:47;;;;;;;70.52;29.20;;;;;;;1.50;81.77;99988.66;1737383;79;25869;-67
2021/03/16 01:33:14;;;;;;;70.00;31.23;;;;;;;1.51;81.81;99985.58;1748450;79;26233;-67
2021/03/16 01:35:42;;;;;;;65.65;30.40;;;;;;;1.50;81.83;99991.30;1763444;79;25784;-67
2021/03/16 01:38:10;;;;;;;64.95;31.65;;;;;;;1.54;81.94;99990.36;1749685;79;26512;-67
2021/03/16 01:40:41;;;;;;;67.25;30.08;;;;;;;1.57;81.91;99986.34;1748905;79;26205;-67
2021/03/16 01:43:23;;;;;;;72.60;29.80;;;;;;;1.56;81.89;99991.65;1750272;79;26597;-67
2021/03/16 01:45:52;;;;;;;70.30;32.65;;;;;;;1.57;81.93;99987.66;1749645;79;28547;-67
2021/03/16 01:48:29;;;;;;;60.33;28.47;;;;;;;1.59;82.01;99996.43;1744361;80;25863;-66
2021/03/16 01:50:58;;;;;;;62.25;28.47;;;;;;;1.60;81.96;99990.25;1797229;78;26193;-67
2021/03/16 01:53:25;;;;;;;62.03;28.70;;;;;;;1.60;81.96;99996.85;1771092;77;25872;-67
2021/03/16 01:55:55;;;;;;;57.45;26.42;;;;;;;1.61;82.02;99992.44;1789842;78;26006;-68
2021/03/16 01:58:23;;;;;;;57.65;26.15;;;;;;;1.61;82.01;99992.44;1778592;77;27877;-68
2021/03/16 02:00:51;;;;;;;64.75;27.95;;;;;;;1.57;81.95;99986.79;1810516;77;26083;-68
2021/03/16 02:03:19;;;;;;;62.23;27.73;;;;;;;1.57;82.06;99986.34;1787315;78;26335;-68
2021/03/16 02:05:47;;;;;;;67.37;28.80;;;;;;;1.58;82.05;99991.17;1785960;77;25935;-68
2021/03/16 02:08:31;;;;;;;68.07;28.45;;;;;;;1.58;82.14;99993.37;1789558;78;25804;-68
2021/03/16 02:11:38;;;;;;;54.93;26.27;;;;;;;1.60;82.15;99988.93;1730243;80;28417;-66
2021/03/16 02:14:14;;;;;;;67.92;28.85;;;;;;;1.63;82.16;99993.28;1736231;80;26559;-67
2021/03/16 02:16:53;;;;;;;64.37;27.50;;;;;;;1.60;82.12;99991.57;1716805;80;25441;-66
2021/03/16 02:19:39;;;;;;;67.17;28.73;;;;;;;1.60;82.19;99991.57;1726942;80;25858;-66
2021/03/16 02:22:07;;;;;;;60.05;27.13;;;;;;;1.61;82.24;99995.08;1731620;79;25820;-66
2021/03/16 02:24:51;;;;;;;61.83;27.02;;;;;;;1.62;82.21;99994.19;1726432;80;26364;-66
2021/03/16 02:27:24;;;;;;;59.13;25.17;;;;;;;1.60;82.22;99998.17;1681446;81;26540;-67
2021/03/16 02:29:55;;;;;;;60.52;26.02;;;;;;;1.32;82.24;99949.81;1724095;81;26019;-68
2021/03/16 02:32:26;;;;;;;57.73;26.02;;;;;;;1.61;82.29;100005.20;1741460;81;25780;-67
2021/03/16 02:35:02;;;;;;;58.02;25.57;;;;;;;1.61;82.28;100009.16;1729969;81;26046;-67
2021/03/16 02:37:35;;;;;;;61.33;28.45;;;;;;;1.62;82.32;100011.35;1743379;81;27815;-67
2021/03/16 02:40:05;;;;;;;60.33;25.92;;;;;;;1.63;82.38;100010.00;1729955;81;25803;-67
2021/03/16 02:42:35;;;;;;;58.73;27.48;;;;;;;1.63;82.33;100011.77;1726509;81;25827;-67
2021/03/16 02:45:07;;;;;;;64.47;26.70;;;;;;;1.64;82.38;100014.84;1730238;81;25767;-67
2021/03/16 02:47:35;;;;;;;58.65;26.57;;;;;;;1.63;82.38;100015.73;1743529;81;25725;-67
2021/03/16 02:50:04;;;;;;;62.27;26.68;;;;;;;1.65;82.42;100017.03;1741162;80;26037;-67
2021/03/16 02:52:33;;;;;;;58.98;27.17;;;;;;;1.67;82.45;100013.92;1777601;80;26081;-68
2021/03/16 02:55:04;;;;;;;59.83;27.75;;;;;;;1.70;82.50;100017.83;1745890;80;25722;-65
2021/03/16 02:57:34;;;;;;;61.10;27.07;;;;;;;1.72;82.51;100019.99;1777613;80;26039;-68
2021/03/16 03:00:05;;;;;;;62.35;28.52;;;;;;;1.75;82.54;100020.81;1745928;80;25940;-68
2021/03/16 03:02:34;;;;;;;59.53;27.40;;;;;;;1.76;82.53;100024.33;1777639;80;27688;-68
2021/03/16 03:05:04;;;;;;;66.70;27.67;;;;;;;1.78;82.56;100022.53;1745718;80;25790;-68
2021/03/16 03:07:34;;;;;;;63.73;28.73;;;;;;;1.79;82.56;100033.52;1729505;80;25821;-68
2021/03/16 03:10:04;;;;;;;65.05;29.55;;;;;;;1.83;82.64;100036.53;1745694;80;25772;-68
2021/03/16 03:12:31;;;;;;;59.00;28.25;;;;;;;1.85;82.63;100035.60;1777498;80;25776;-67
2021/03/16 03:14:59;;;;;;;61.53;26.73;;;;;;;1.84;82.56;100035.18;1743801;80;26408;-67
2021/03/16 03:17:27;;;;;;;62.45;27.10;;;;;;;1.83;82.57;100037.84;1777510;80;25645;-66
2021/03/16 03:19:55;;;;;;;64.47;30.05;;;;;;;1.81;82.55;100044.93;1743814;80;25782;-66
2021/03/16 03:22:58;;;;;;;69.10;31.45;;;;;;;1.77;82.54;100045.44;1777499;80;26282;-67
2021/03/16 03:25:33;;;;;;;66.12;31.57;;;;;;;1.78;82.66;100045.86;1750493;80;25728;-66
2021/03/16 03:28:06;;;;;;;68.72;29.15;;;;;;;1.82;82.72;100051.52;1777499;80;27526;-66
2021/03/16 03:30:36;;;;;;;64.58;28.25;;;;;;;1.85;82.76;100055.42;1728566;79;25990;-67
2021/03/16 03:33:07;;;;;;;67.58;29.18;;;;;;;1.88;82.71;100058.46;1741177;79;26006;-66
2021/03/16 03:35:37;;;;;;;65.60;30.88;;;;;;;1.88;82.70;100057.14;1739227;79;25980;-66
2021/03/16 03:38:08;;;;;;;71.07;31.60;;;;;;;1.87;82.73;100056.72;1742095;79;26525;-66
2021/03/16 03:40:38;;;;;;;72.82;32.15;;;;;;;1.89;82.76;100059.75;1748821;79;27488;-66
2021/03/16 03:43:10;;;;;;;62.40;27.82;;;;;;;1.90;82.76;100063.27;1748698;79;25818;-67
2021/03/16 03:45:40;;;;;;;69.82;31.30;;;;;;;1.92;82.77;100062.79;1748507;79;25916;-67
2021/03/16 03:48:12;;;;;;;72.55;31.17;;;;;;;1.91;82.79;100069.84;1747543;79;26011;-67
2021/03/16 03:50:42;;;;;;;68.80;30.35;;;;;;;1.92;82.81;100072.05;1747924;79;26463;-67
2021/03/16 03:53:11;;;;;;;64.45;29.12;;;;;;;1.93;82.83;100069.38;1748172;79;27364;-67
2021/03/16 03:55:39;;;;;;;60.23;28.57;;;;;;;1.99;82.89;100078.09;1748631;79;25833;-67
2021/03/16 03:58:08;;;;;;;58.33;27.75;;;;;;;2.00;82.92;100080.70;1727509;79;25924;-67
2021/03/16 04:00:36;;;;;;;62.13;29.10;;;;;;;2.03;82.93;100085.07;1761084;78;25763;-67
2021/03/16 04:03:05;;;;;;;53.63;26.10;;;;;;;2.06;82.97;100088.53;1768433;79;26548;-67
2021/03/16 04:05:33;;;;;;;65.08;27.37;;;;;;;2.08;82.93;100085.86;1727830;80;27537;-66
2021/03/16 04:08:05;;;;;;;59.77;28.17;;;;;;;2.07;82.96;100082.34;1722519;80;25818;-66
2021/03/16 04:10:36;;;;;;;56.58;28.12;;;;;;;2.09;83.00;100089.80;1713987;79;25977;-66
2021/03/16 04:13:04;;;;;;;65.95;27.25;;;;;;;2.12;83.00;100095.48;1732746;80;25933;-66
2021/03/16 04:15:33;;;;;;;61.15;28.77;;;;;;;2.14;83.01;100096.33;1742592;80;25999;-66
2021/03/16 04:18:02;;;;;;;62.50;29.60;;;;;;;2.14;82.98;100097.65;1734949;80;27472;-66
2021/03/16 04:20:30;;;;;;;81.95;35.25;;;;;;;2.14;82.99;100096.33;1730859;80;25887;-66
2021/03/16 04:22:58;;;;;;;73.05;31.33;;;;;;;2.16;83.03;100101.13;1744888;80;25862;-66
2021/03/16 04:25:26;;;;;;;79.72;33.18;;;;;;;2.19;83.07;100102.41;1767738;78;25931;-66
2021/03/16 04:27:57;;;;;;;73.02;31.90;;;;;;;2.23;83.12;100099.67;1726894;80;25976;-67
2021/03/16 04:30:25;;;;;;;77.17;32.88;;;;;;;2.30;83.17;100107.50;1733762;80;28110;-67
2021/03/16 04:32:53;;;;;;;71.12;32.15;;;;;;;2.31;83.10;100104.83;1728725;80;26096;-66
2021/03/16 04:35:21;;;;;;;81.28;35.30;;;;;;;2.29;83.02;100109.27;1738894;80;25868;-67
2021/03/16 04:37:48;;;;;;;79.97;33.70;;;;;;;2.28;83.05;100118.97;1733037;80;26243;-67
2021/03/16 04:40:16;;;;;;;83.62;33.13;;;;;;;2.31;83.13;100111.89;1736997;80;26386;-67
2021/03/16 04:42:44;;;;;;;76.80;31.60;;;;;;;2.32;83.07;100118.47;1732778;80;27858;-66
2021/03/16 04:45:14;;;;;;;74.60;30.97;;;;;;;2.30;83.10;100118.95;1733808;80;25897;-66
2021/03/16 04:47:42;;;;;;;73.52;32.28;;;;;;;2.32;83.15;100121.11;1731612;80;25907;-67
2021/03/16 04:50:10;;;;;;;64.00;29.90;;;;;;;2.40;83.24;100122.30;1723358;80;25740;-66
2021/03/16 04:52:38;;;;;;;72.37;31.77;;;;;;;2.43;83.25;100118.27;1731032;80;26465;-66
2021/03/16 04:55:08;;;;;;;68.30;29.82;;;;;;;2.44;83.19;100116.92;1730418;80;26873;-66
2021/03/16 04:57:36;;;;;;;69.25;29.90;;;;;;;2.43;83.12;100119.59;1749813;80;26211;-67
2021/03/16 05:00:05;;;;;;;70.62;30.85;;;;;;;2.44;83.18;100123.98;1730268;80;25929;-66
2021/03/16 05:02:33;;;;;;;59.58;28.87;;;;;;;2.47;83.24;100123.47;1735820;81;25849;-66
2021/03/16 05:05:02;;;;;;;59.18;28.70;;;;;;;2.46;83.18;100131.44;1754912;80;25729;-67
2021/03/16 05:07:30;;;;;;;73.07;30.23;;;;;;;2.43;83.15;100131.05;1730181;81;27494;-67
2021/03/16 05:09:58;;;;;;;62.62;28.62;;;;;;;2.45;83.22;100133.66;1754875;80;26190;-67
2021/03/16 05:12:26;;;;;;;63.08;29.25;;;;;;;2.43;83.16;100132.37;1754587;81;26131;-66
2021/03/16 05:14:53;;;;;;;65.45;30.08;;;;;;;2.42;83.18;100136.36;1754647;81;25703;-67
2021/03/16 05:17:21;;;;;;;62.55;29.90;;;;;;;2.43;83.22;100144.72;1754968;80;25795;-67
2021/03/16 05:19:49;;;;;;;58.45;28.38;;;;;;;2.46;83.28;100145.98;1754696;81;25966;-66
2021/03/16 05:22:16;;;;;;;69.40;31.23;;;;;;;2.47;83.24;100142.44;1754966;80;25837;-67
2021/03/16 05:24:44;;;;;;;76.02;32.00;;;;;;;2.50;83.35;100151.19;1754663;81;25784;-66
2021/03/16 05:27:12;;;;;;;81.25;33.10;;;;;;;2.50;83.25;100160.45;1754980;80;25828;-66
2021/03/16 05:29:40;;;;;;;81.02;31.85;;;;;;;2.48;83.22;100162.70;1754172;80;25812;-68
2021/03/16 05:32:07;;;;;;;86.37;34.05;;;;;;;2.45;83.23;100165.41;1730437;80;27808;-67
2021/03/16 05:34:35;;;;;;;80.90;32.73;;;;;;;2.43;83.21;100169.84;1738369;79;26101;-66
2021/03/16 05:37:03;;;;;;;71.05;30.85;;;;;;;2.41;83.19;100169.88;1729787;80;25854;-66
2021/03/16 05:39:31;;;;;;;69.10;31.30;;;;;;;2.35;83.16;100173.08;1730660;79;26034;-67
2021/03/16 05:41:59;;;;;;;72.58;33.10;;;;;;;2.33;83.25;100177.07;1742066;80;25775;-66
2021/03/16 05:44:29;;;;;;;82.05;33.08;;;;;;;2.33;83.26;100180.16;1737829;80;27982;-66
2021/03/16 05:46:57;;;;;;;73.55;32.28;;;;;;;2.35;83.34;100179.69;1738266;79;26220;-66
2021/03/16 05:49:25;;;;;;;79.32;33.05;;;;;;;2.36;83.32;100174.38;1722812;79;25861;-65
2021/03/16 05:51:54;;;;;;;80.83;35.20;;;;;;;2.40;83.35;100177.39;1726437;80;25848;-66
2021/03/16 05:54:24;;;;;;;79.58;33.40;;;;;;;2.46;83.37;100188.31;1736530;80;25861;-66
2021/03/16 05:56:51;;;;;;;66.85;30.95;;;;;;;2.51;83.38;100187.78;1726380;80;27915;-67
2021/03/16 05:59:20;;;;;;;78.75;32.67;;;;;;;2.55;83.37;100194.76;1740126;80;25870;-66
2021/03/16 06:01:47;;;;;;;80.95;33.70;;;;;;;2.56;83.35;100197.83;1738271;80;26015;-67
2021/03/16 06:04:15;;;;;;;75.78;31.82;;;;;;;2.57;83.35;100199.57;1731563;81;25956;-67
2021/03/16 06:06:43;;;;;;;71.28;30.20;;;;;;;2.60;83.35;100206.97;1731114;80;26495;-67
2021/03/16 06:09:11;;;;;;;64.35;30.62;;;;;;;2.65;83.37;100207.34;1725124;80;26906;-68
2021/03/16 06:11:49;;;;;;;72.20;32.08;;;;;;;2.69;83.43;100212.55;1724236;80;25985;-67
2021/03/16 06:14:17;;;;;;;71.22;30.90;;;;;;;2.75;83.42;100213.76;1730826;80;25912;-67
2021/03/16 06:16:45;;;;;;;69.97;31.65;;;;;;;2.77;83.43;100216.37;1717396;80;26004;-67
2021/03/16 06:19:16;;;;;;;73.20;32.40;;;;;;;2.78;83.34;100218.12;1734193;80;25903;-67
2021/03/16 06:21:48;;;;;;;59.30;29.12;;;;;;;2.79;83.38;100215.45;1721359;79;27496;-67
2021/03/16 06:24:15;;;;;;;69.70;31.30;;;;;;;2.85;83.43;100225.05;1740736;79;25823;-67
2021/03/16 06:26:48;;;;;;;75.28;31.50;;;;;;;2.89;83.42;100233.34;1755433;79;26608;-68
2021/03/16 06:29:16;;;;;;;72.72;31.75;;;;;;;2.98;83.45;100232.30;1750874;79;25911;-67
2021/03/16 06:31:44;;;;;;;72.17;31.33;;;;;;;3.05;83.50;100232.61;1732743;80;25956;-67
2021/03/16 06:34:26;;;;;;;66.40;29.12;;;;;;;3.16;83.49;100231.95;1730587;81;27191;-68
2021/03/16 06:37:01;;;;;;;59.93;29.23;;;;;;;3.21;83.44;100237.58;1730151;80;26498;-67
2021/03/16 06:39:29;;;;;;;63.90;31.80;;;;;;;3.29;83.50;100229.92;1726897;80;25778;-68
2021/03/16 06:41:57;;;;;;;57.03;27.70;;;;;;;3.36;83.41;100234.20;1731384;80;26162;-67
2021/03/16 06:44:25;;;;;;;68.95;31.33;;;;;;;3.34;83.35;100234.23;1717448;80;25496;-69
2021/03/16 06:47:01;;;;;;;64.25;30.17;;;;;;;3.38;83.35;100235.04;1734495;78;26234;-67
2021/03/16 06:49:33;;;;;;;61.77;29.65;;;;;;;3.40;83.37;100237.20;1733769;81;26069;-67
2021/03/16 06:52:07;;;;;;;61.45;30.48;;;;;;;3.42;83.41;100236.72;1777829;78;25915;-67
2021/03/16 06:54:34;;;;;;;65.78;30.20;;;;;;;3.55;83.51;100243.05;1782673;78;26558;-67
2021/03/16 06:57:02;;;;;;;62.60;29.10;;;;;;;3.68;83.49;100251.62;1773924;78;26424;-67
2021/03/16 06:59:32;;;;;;;63.55;27.52;;;;;;;3.78;83.48;100251.83;1812431;77;27573;-68
2021/03/16 07:02:17;;;;;;;57.15;28.70;;;;;;;3.82;83.36;100252.19;1717132;81;26655;-67
2021/03/16 07:04:45;;;;;;;70.50;29.92;;;;;;;3.81;83.28;100250.89;1741962;79;25925;-69
2021/03/16 07:07:13;;;;;;;64.53;28.38;;;;;;;3.88;83.39;100257.81;1714571;81;26692;-68
2021/03/16 07:09:42;;;;;;;63.50;29.60;;;;;;;3.98;83.39;100259.34;1742741;80;26116;-68
2021/03/16 07:12:12;;;;;;;66.62;30.50;;;;;;;3.96;83.17;100266.46;1723321;81;27707;-69
2021/03/16 07:14:41;;;;;;;67.35;29.95;;;;;;;3.95;83.20;100267.37;1721583;80;25884;-68
2021/03/16 07:17:09;;;;;;;67.30;28.75;;;;;;;4.02;83.26;100265.45;1730145;81;25845;-69
2021/03/16 07:19:38;;;;;;;70.00;30.88;;;;;;;4.12;83.31;100270.97;1727923;79;26516;-68
2021/03/16 07:22:08;;;;;;;60.38;28.65;;;;;;;4.11;83.18;100278.50;1730575;81;25954;-68
2021/03/16 07:24:36;;;;;;;71.92;30.10;;;;;;;4.14;83.22;100281.09;1734139;80;27723;-69
2021/03/16 07:27:05;;;;;;;65.12;30.12;;;;;;;4.14;83.10;100281.09;1731650;81;26125;-68
2021/03/16 07:29:33;;;;;;;58.30;27.40;;;;;;;4.14;83.04;100288.59;1716470;80;25792;-69
2021/03/16 07:32:03;;;;;;;67.58;30.75;;;;;;;4.16;83.05;100292.53;1720368;81;25877;-68
2021/03/16 07:34:31;;;;;;;57.60;27.22;;;;;;;4.18;83.05;100292.91;1725562;80;25885;-68
2021/03/16 07:37:02;;;;;;;61.70;28.83;;;;;;;4.18;82.97;100301.33;1735459;79;27789;-68
2021/03/16 07:39:33;;;;;;;63.55;29.70;;;;;;;4.17;83.02;100309.73;1737395;81;28605;-69
2021/03/16 07:42:01;;;;;;;61.60;28.52;;;;;;;4.22;82.95;100305.20;1737711;81;25722;-69
2021/03/16 07:44:29;;;;;;;57.53;29.92;;;;;;;4.30;82.99;100308.13;1762409;81;26572;-69
2021/03/16 07:46:59;;;;;;;63.28;29.23;;;;;;;4.36;82.97;100317.28;1762608;81;25757;-70
2021/03/16 07:49:38;;;;;;;62.03;27.98;;;;;;;4.42;82.98;100313.16;1762157;81;27567;-69
2021/03/16 07:52:23;;;;;;;60.70;30.92;;;;;;;4.49;82.88;100312.10;1736368;81;25686;-70
2021/03/16 07:54:52;;;;;;;63.78;30.02;;;;;;;4.53;82.81;100314.64;1735684;81;25735;-69
2021/03/16 07:57:31;;;;;;;65.35;30.72;;;;;;;4.57;82.82;100316.77;1737079;81;25769;-66
2021/03/16 08:00:03;;;;;;;61.23;31.30;;;;;;;4.60;82.76;100319.80;1737430;81;25448;-65
2021/03/16 08:02:34;;;;;;;65.25;29.87;;;;;;;4.65;82.77;100321.89;1736482;81;28065;-66
2021/03/16 08:05:13;;;;;;;71.55;32.95;;;;;;;4.75;82.86;100324.28;1736488;81;25533;-66
2021/03/16 08:07:41;;;;;;;67.30;32.65;;;;;;;4.82;82.81;100321.89;1735905;81;25804;-66
2021/03/16 08:10:10;;;;;;;66.53;30.43;;;;;;;4.80;82.42;100331.69;1736177;81;26598;-66
2021/03/16 08:12:38;;;;;;;67.35;32.58;;;;;;;4.77;82.50;100337.07;1736251;81;25780;-65
2021/03/16 08:15:12;;;;;;;71.70;31.35;;;;;;;4.84;82.55;100338.66;1736547;81;27822;-65
2021/03/16 08:17:41;;;;;;;66.02;31.07;;;;;;;4.98;82.67;100340.97;1736380;81;25734;-65
2021/03/16 08:20:13;;;;;;;63.45;29.98;;;;;;;5.11;82.59;100337.55;1736553;81;25707;-66
2021/03/16 08:22:41;;;;;;;67.47;31.37;;;;;;;5.10;82.33;100339.78;1734185;81;25734;-66
2021/03/16 08:25:10;;;;;;;77.90;33.35;;;;;;;5.12;82.39;100346.80;1736517;81;25756;-65
2021/03/16 08:27:39;;;;;;;77.17;31.82;;;;;;;5.21;82.42;100343.88;1706528;82;27336;-66
2021/03/16 08:30:11;;;;;;;79.82;32.80;;;;;;;5.29;82.27;100352.10;1742584;79;25759;-66
2021/03/16 08:32:40;;;;;;;81.35;35.03;;;;;;;5.29;82.18;100350.31;1746379;79;25797;-66
2021/03/16 08:35:09;;;;;;;78.22;33.30;;;;;;;5.38;82.24;100350.07;1752338;79;26880;-66
2021/03/16 08:37:37;;;;;;;70.90;34.23;;;;;;;5.38;82.03;100352.73;1742687;79;25439;-66
2021/03/16 08:40:08;;;;;;;81.32;38.63;;;;;;;5.41;82.01;100352.65;1752082;79;27647;-66
2021/03/16 08:42:35;;;;;;;86.45;40.03;;;;;;;5.38;81.82;100359.37;1748313;79;25869;-64
2021/03/16 08:45:05;;;;;;;79.72;34.15;;;;;;;5.12;81.18;100358.76;1690850;82;25926;-66
2021/03/16 08:47:36;;;;;;;78.30;36.68;;;;;;;4.93;81.16;100372.08;1749222;79;26261;-66
2021/03/16 08:50:05;;;;;;;82.05;35.43;;;;;;;4.74;80.93;100372.11;1746266;79;26612;-65
2021/03/16 08:52:33;;;;;;;79.55;37.42;;;;;;;4.53;80.79;100382.78;1734385;80;27310;-65
2021/03/16 08:55:02;;;;;;;78.28;36.25;;;;;;;4.41;80.96;100386.58;1755009;78;25860;-65
2021/03/16 08:57:30;;;;;;;81.47;37.58;;;;;;;4.28;80.83;100389.54;1737456;79;25921;-66
2021/03/16 09:00:03;;;;;;;75.47;36.48;;;;;;;4.18;80.91;100392.39;1744607;79;25788;-66
2021/03/16 09:02:36;;;;;;;73.10;32.65;;;;;;;4.23;81.19;100391.84;1729494;79;25861;-67
2021/03/16 09:05:04;;;;;;;74.70;35.03;;;;;;;4.37;81.26;100395.97;1750500;79;27680;-66
2021/03/16 09:07:38;;;;;;;79.77;34.18;;;;;;;4.39;81.09;100393.70;1754791;79;26657;-66
2021/03/16 09:10:11;;;;;;;73.40;35.92;;;;;;;4.41;80.95;100393.67;1736262;79;26501;-65
2021/03/16 09:12:43;;;;;;;73.97;32.70;;;;;;;4.40;80.94;100403.86;1789484;77;25876;-66
2021/03/16 09:15:28;;;;;;;82.55;34.35;;;;;;;4.46;80.82;100402.40;1797566;76;25855;-65
2021/03/16 09:18:00;;;;;;;76.80;38.42;;;;;;;4.45;80.91;100401.53;1791045;77;27824;-66
2021/03/16 09:20:33;;;;;;;85.00;40.00;;;;;;;4.52;80.89;100411.55;1800507;77;25866;-66
2021/03/16 09:23:08;;;;;;;90.03;39.53;;;;;;;4.56;80.88;100409.25;1798707;77;25911;-66
2021/03/16 09:25:41;;;;;;;81.90;37.85;;;;;;;4.62;80.94;100411.77;1801762;77;25847;-67
2021/03/16 09:28:13;;;;;;;89.90;39.92;;;;;;;4.80;81.19;100418.44;1793470;77;26048;-67
2021/03/16 09:30:54;;;;;;;80.57;38.35;;;;;;;4.97;81.09;100408.28;1799084;77;27775;-67
2021/03/16 09:33:25;;;;;;;76.22;35.30;;;;;;;5.06;80.94;100412.05;1792129;77;26005;-66
2021/03/16 09:36:00;;;;;;;75.67;35.48;;;;;;;5.07;80.79;100411.59;1785384;78;25719;-67
2021/03/16 09:38:28;;;;;;;76.15;33.00;;;;;;;5.03;80.59;100414.77;1800804;77;25917;-66
2021/03/16 09:40:56;;;;;;;74.17;36.98;;;;;;;4.98;80.61;100418.45;1801234;77;26234;-66
2021/03/16 09:43:36;;;;;;;84.45;39.20;;;;;;;4.98;80.66;100421.98;1795487;76;27369;-66
2021/03/16 09:46:08;;;;;;;88.37;38.30;;;;;;;5.02;80.63;100414.36;1791866;77;26565;-67
2021/03/16 09:48:37;;;;;;;73.70;35.25;;;;;;;4.95;80.48;100419.85;1791354;76;25831;-67
2021/03/16 09:51:15;;;;;;;75.25;35.30;;;;;;;5.07;80.61;100419.55;1806303;77;26484;-66
2021/03/16 09:53:52;;;;;;;74.05;36.10;;;;;;;5.12;80.47;100424.30;1814813;77;25883;-65
2021/03/16 09:56:36;;;;;;;69.15;34.63;;;;;;;5.14;80.36;100418.49;1811745;77;27618;-67
2021/03/16 09:59:05;;;;;;;78.20;36.58;;;;;;;5.19;80.28;100418.80;1810250;77;25933;-66
2021/03/16 10:01:41;;;;;;;73.33;36.48;;;;;;;5.28;80.36;100423.44;1804212;76;25952;-66
2021/03/16 10:04:13;;;;;;;76.05;37.58;;;;;;;5.35;80.17;100424.56;1808006;77;25939;-65
2021/03/16 10:06:44;;;;;;;72.27;34.75;;;;;;;5.36;80.09;100430.30;1797491;76;25825;-64
2021/03/16 10:09:21;;;;;;;64.75;31.48;;;;;;;5.47;80.23;100432.68;1823431;77;27742;-66
2021/03/16 10:11:52;;;;;;;68.15;34.40;;;;;;;5.55;80.21;100422.27;1818553;77;26138;-64
2021/03/16 10:14:29;;;;;;;66.50;35.08;;;;;;;5.64;79.84;100437.56;1814853;77;25907;-65
2021/03/16 10:16:57;;;;;;;71.33;33.78;;;;;;;5.74;79.84;100443.92;1800514;77;25824;-65
2021/03/16 10:19:25;;;;;;;67.65;34.35;;;;;;;5.93;79.85;100440.34;1828611;76;25960;-65
2021/03/16 10:21:53;;;;;;;74.40;35.05;;;;;;;6.12;79.86;100441.56;1808901;77;27869;-65
2021/03/16 10:24:30;;;;;;;69.03;32.78;;;;;;;6.32;79.90;100442.33;1806739;77;25882;-66
2021/03/16 10:26:59;;;;;;;61.88;28.87;;;;;;;6.53;79.83;100444.81;1803290;77;25887;-68
2021/03/16 10:29:27;;;;;;;60.78;30.35;;;;;;;6.56;78.69;100450.05;1814902;77;32789;-66
2021/03/16 10:31:54;;;;;;;59.85;29.60;;;;;;;6.42;78.23;100452.25;1677951;77;25954;-65
2021/03/16 10:34:22;;;;;;;66.95;32.48;;;;;;;6.48;78.52;100459.59;1618088;85;27499;-65
2021/03/16 10:36:50;;;;;;;63.85;32.10;;;;;;;6.57;78.15;100462.91;1676820;82;25837;-64
2021/03/16 10:39:18;;;;;;;58.83;28.42;;;;;;;6.60;77.98;100461.48;1647887;84;26576;-65
2021/03/16 10:41:48;;;;;;;60.05;31.12;;;;;;;6.68;77.75;100460.33;1672578;82;25929;-65
2021/03/16 10:44:16;;;;;;;68.30;34.30;;;;;;;6.67;77.43;100467.91;1651279;85;25867;-65
2021/03/16 10:46:44;;;;;;;73.40;37.23;;;;;;;6.59;77.15;100464.60;1669766;83;26069;-64
2021/03/16 10:49:12;;;;;;;64.35;30.80;;;;;;;6.62;77.33;100470.30;1664863;84;26382;-65
2021/03/16 10:51:39;;;;;;;62.30;29.75;;;;;;;6.66;77.13;100470.16;1687943;83;25982;-65
2021/03/16 10:54:07;;;;;;;74.30;33.98;;;;;;;6.62;77.08;100476.95;1686757;83;25944;-65
2021/03/16 10:56:35;;;;;;;74.92;37.90;;;;;;;6.65;77.25;100479.06;1672097;83;25941;-64
2021/03/16 10:59:02;;;;;;;86.08;38.23;;;;;;;6.70;77.17;100473.60;1663455;84;25763;-64
2021/03/16 11:01:30;;;;;;;74.95;37.95;;;;;;;6.81;77.26;100469.69;1668388;83;26011;-65
2021/03/16 11:03:58;;;;;;;69.20;36.42;;;;;;;6.94;77.29;100476.84;1650172;84;25905;-65
2021/03/16 11:06:26;;;;;;;76.67;39.40;;;;;;;7.07;77.13;100477.34;1690324;83;25832;-65
2021/03/16 11:08:53;;;;;;;79.55;39.58;;;;;;;7.00;76.83;100477.98;1673937;84;26027;-65
2021/03/16 11:11:23;;;;;;;73.47;39.05;;;;;;;7.18;77.02;100469.00;1650972;83;28444;-64
2021/03/16 11:13:55;;;;;;;77.42;35.40;;;;;;;7.31;76.99;100472.55;1653256;84;25993;-65
2021/03/16 11:16:27;;;;;;;72.85;35.45;;;;;;;7.33;76.72;100474.70;1671410;84;25926;-64
2021/03/16 11:18:55;;;;;;;85.25;33.18;;;;;;;7.28;76.08;100476.64;1649048;84;26023;-64
2021/03/16 11:21:23;;;;;;;66.77;33.55;;;;;;;7.22;75.92;100474.17;1647824;82;25834;-65
2021/03/16 11:23:51;;;;;;;61.70;30.88;;;;;;;7.27;75.95;100466.91;1643621;84;27802;-65
2021/03/16 11:26:22;;;;;;;73.15;34.63;;;;;;;7.36;75.36;100467.06;1673342;83;26367;-65
2021/03/16 11:28:50;;;;;;;67.82;36.53;;;;;;;7.41;75.60;100468.66;1664816;84;26418;-64
2021/03/16 11:31:18;;;;;;;73.83;38.28;;;;;;;7.46;75.41;100465.84;1631627;84;25994;-64
2021/03/16 11:33:45;;;;;;;56.33;31.05;;;;;;;7.53;75.54;100462.05;1671001;83;26022;-65